sensor_id;sensor_type;location;lat;lon;timestamp;temperature;humidity
2190;DHT22;1101;51.056;7.262;2023-02-18T00:00:57;10.00;99.90
2190;DHT22;1101;51.056;7.262;2023-02-18T00:03:26;10.00;99.90
2190;DHT22;1101;51.056;7.262;2023-02-18T00:05:55;10.00;99.90
2190;DHT22;1101;51.056;7.262;2023-02-18T00:08:23;9.90;99.90
2190;DHT22;1101;51.056;7.262;2023-02-18T00:10:51;9.90;99.90
2190;DHT22;1101;51.056;7.262;2023-02-18T00:13:19;9.90;99.90
2190;DHT22;1101;51.056;7.262;2023-02-18T00:15:48;9.90;99.90
2190;DHT22;1101;51.056;7.262;2023-02-18T00:18:16;9.90;99.90
2190;DHT22;1101;51.056;7.262;2023-02-18T00:20:44;9.90;99.90
2190;DHT22;1101;51.056;7.262;2023-02-18T00:23:11;9.90;99.90
2190;DHT22;1101;51.056;7.262;2023-02-18T00:25:39;9.90;99.90
2190;DHT22;1101;51.056;7.262;2023-02-18T00:28:07;9.90;99.90
2190;DHT22;1101;51.056;7.262;2023-02-18T00:30:39;9.90;99.90
2190;DHT22;1101;51.056;7.262;2023-02-18T00:33:08;9.90;99.90
2190;DHT22;1101;51.056;7.262;2023-02-18T00:35:36;9.90;99.90
2190;DHT22;1101;51.056;7.262;2023-02-18T00:38:03;9.90;99.90
2190;DHT22;1101;51.056;7.262;2023-02-18T00:40:31;9.90;99.90
2190;DHT22;1101;51.056;7.262;2023-02-18T00:42:59;9.90;99.90
2190;DHT22;1101;51.056;7.262;2023-02-18T00:45:27;9.90;99.90
2190;DHT22;1101;51.056;7.262;2023-02-18T00:47:54;9.90;99.90
2190;DHT22;1101;51.056;7.262;2023-02-18T00:50:23;9.90;99.90
2190;DHT22;1101;51.056;7.262;2023-02-18T00:52:51;9.90;99.90
2190;DHT22;1101;51.056;7.262;2023-02-18T00:55:19;9.80;99.90
2190;DHT22;1101;51.056;7.262;2023-02-18T00:57:47;9.80;99.90
2190;DHT22;1101;51.056;7.262;2023-02-18T01:00:15;9.80;99.90
2190;DHT22;1101;51.056;7.262;2023-02-18T01:02:43;9.80;99.90
2190;DHT22;1101;51.056;7.262;2023-02-18T01:05:11;9.80;99.90
2190;DHT22;1101;51.056;7.262;2023-02-18T01:07:40;9.80;99.90
2190;DHT22;1101;51.056;7.262;2023-02-18T01:10:08;9.80;99.90
2190;DHT22;1101;51.056;7.262;2023-02-18T01:12:36;9.80;99.90
2190;DHT22;1101;51.056;7.262;2023-02-18T01:15:05;9.80;99.90
2190;DHT22;1101;51.056;7.262;2023-02-18T01:17:33;9.80;99.90
2190;DHT22;1101;51.056;7.262;2023-02-18T01:20:00;9.80;99.90
2190;DHT22;1101;51.056;7.262;2023-02-18T01:22:28;9.70;99.90
2190;DHT22;1101;51.056;7.262;2023-02-18T01:24:57;9.70;99.90
2190;DHT22;1101;51.056;7.262;2023-02-18T01:27:25;9.70;99.90
2190;DHT22;1101;51.056;7.262;2023-02-18T01:29:53;9.70;99.90
2190;DHT22;1101;51.056;7.262;2023-02-18T01:32:21;9.70;99.90
2190;DHT22;1101;51.056;7.262;2023-02-18T01:34:49;9.70;99.90
2190;DHT22;1101;51.056;7.262;2023-02-18T01:37:17;9.80;99.90
2190;DHT22;1101;51.056;7.262;2023-02-18T01:39:44;9.70;99.90
2190;DHT22;1101;51.056;7.262;2023-02-18T01:42:18;9.70;99.90
2190;DHT22;1101;51.056;7.262;2023-02-18T01:44:46;9.70;99.90
2190;DHT22;1101;51.056;7.262;2023-02-18T01:47:15;9.70;99.90
2190;DHT22;1101;51.056;7.262;2023-02-18T01:49:44;9.70;99.90
2190;DHT22;1101;51.056;7.262;2023-02-18T01:52:17;9.70;99.90
2190;DHT22;1101;51.056;7.262;2023-02-18T01:54:48;9.70;99.90
2190;DHT22;1101;51.056;7.262;2023-02-18T01:57:20;9.70;99.90
2190;DHT22;1101;51.056;7.262;2023-02-18T01:59:52;9.70;99.90
2190;DHT22;1101;51.056;7.262;2023-02-18T02:02:23;9.80;99.90
2190;DHT22;1101;51.056;7.262;2023-02-18T02:04:51;9.80;99.90
2190;DHT22;1101;51.056;7.262;2023-02-18T02:07:21;9.80;99.90
2190;DHT22;1101;51.056;7.262;2023-02-18T02:09:51;9.70;99.90
2190;DHT22;1101;51.056;7.262;2023-02-18T02:12:35;9.70;99.90
2190;DHT22;1101;51.056;7.262;2023-02-18T02:15:22;9.80;99.90
2190;DHT22;1101;51.056;7.262;2023-02-18T02:18:04;9.70;99.90
2190;DHT22;1101;51.056;7.262;2023-02-18T02:21:06;9.80;99.90
2190;DHT22;1101;51.056;7.262;2023-02-18T02:24:10;9.70;99.90
2190;DHT22;1101;51.056;7.262;2023-02-18T02:27:00;9.70;99.90
2190;DHT22;1101;51.056;7.262;2023-02-18T02:35:31;9.70;99.90
2190;DHT22;1101;51.056;7.262;2023-02-18T02:38:06;9.70;99.90
2190;DHT22;1101;51.056;7.262;2023-02-18T02:40:45;9.70;99.90
2190;DHT22;1101;51.056;7.262;2023-02-18T02:43:20;9.70;99.90
2190;DHT22;1101;51.056;7.262;2023-02-18T02:45:55;9.70;99.90
2190;DHT22;1101;51.056;7.262;2023-02-18T02:48:30;9.70;99.90
2190;DHT22;1101;51.056;7.262;2023-02-18T02:51:05;9.70;99.90
2190;DHT22;1101;51.056;7.262;2023-02-18T02:53:36;9.70;99.90
2190;DHT22;1101;51.056;7.262;2023-02-18T02:56:10;9.70;99.90
2190;DHT22;1101;51.056;7.262;2023-02-18T02:58:40;9.70;99.90
2190;DHT22;1101;51.056;7.262;2023-02-18T03:01:29;9.60;99.90
2190;DHT22;1101;51.056;7.262;2023-02-18T03:04:12;9.60;99.90
2190;DHT22;1101;51.056;7.262;2023-02-18T03:07:01;9.70;99.90
2190;DHT22;1101;51.056;7.262;2023-02-18T03:09:42;9.60;99.90
2190;DHT22;1101;51.056;7.262;2023-02-18T03:12:18;9.60;99.90
2190;DHT22;1101;51.056;7.262;2023-02-18T03:14:53;9.60;99.90
2190;DHT22;1101;51.056;7.262;2023-02-18T03:17:25;9.60;99.90
2190;DHT22;1101;51.056;7.262;2023-02-18T03:20:03;9.60;99.90
2190;DHT22;1101;51.056;7.262;2023-02-18T03:22:38;9.60;99.90
2190;DHT22;1101;51.056;7.262;2023-02-18T03:25:09;9.60;99.90
2190;DHT22;1101;51.056;7.262;2023-02-18T03:27:41;9.60;99.90
2190;DHT22;1101;51.056;7.262;2023-02-18T03:30:13;9.60;99.90
2190;DHT22;1101;51.056;7.262;2023-02-18T03:32:44;9.60;99.90
2190;DHT22;1101;51.056;7.262;2023-02-18T03:35:15;9.60;99.90
2190;DHT22;1101;51.056;7.262;2023-02-18T03:37:49;9.60;99.90
2190;DHT22;1101;51.056;7.262;2023-02-18T03:40:18;9.60;99.90
2190;DHT22;1101;51.056;7.262;2023-02-18T03:42:45;9.60;99.90
2190;DHT22;1101;51.056;7.262;2023-02-18T03:45:13;9.60;99.90
2190;DHT22;1101;51.056;7.262;2023-02-18T03:47:41;9.60;99.90
2190;DHT22;1101;51.056;7.262;2023-02-18T03:50:09;9.60;99.90
2190;DHT22;1101;51.056;7.262;2023-02-18T03:52:37;9.60;99.90
2190;DHT22;1101;51.056;7.262;2023-02-18T03:55:06;9.60;99.90
2190;DHT22;1101;51.056;7.262;2023-02-18T03:57:34;9.60;99.90
2190;DHT22;1101;51.056;7.262;2023-02-18T04:00:03;9.60;99.90
2190;DHT22;1101;51.056;7.262;2023-02-18T04:02:32;9.60;99.90
2190;DHT22;1101;51.056;7.262;2023-02-18T04:05:00;9.60;99.90
2190;DHT22;1101;51.056;7.262;2023-02-18T04:07:28;9.60;99.90
2190;DHT22;1101;51.056;7.262;2023-02-18T04:09:56;9.60;99.90
2190;DHT22;1101;51.056;7.262;2023-02-18T04:12:25;9.60;99.90
2190;DHT22;1101;51.056;7.262;2023-02-18T04:14:53;9.60;99.90
2190;DHT22;1101;51.056;7.262;2023-02-18T04:17:20;9.60;99.90
2190;DHT22;1101;51.056;7.262;2023-02-18T04:19:48;9.60;99.90
2190;DHT22;1101;51.056;7.262;2023-02-18T04:22:16;9.60;99.90
2190;DHT22;1101;51.056;7.262;2023-02-18T04:24:44;9.50;99.90
2190;DHT22;1101;51.056;7.262;2023-02-18T04:27:11;9.60;99.90
2190;DHT22;1101;51.056;7.262;2023-02-18T04:29:41;9.60;99.90
2190;DHT22;1101;51.056;7.262;2023-02-18T04:32:09;9.60;99.90
2190;DHT22;1101;51.056;7.262;2023-02-18T04:34:36;9.60;99.90
2190;DHT22;1101;51.056;7.262;2023-02-18T04:37:04;9.60;99.90
2190;DHT22;1101;51.056;7.262;2023-02-18T04:39:32;9.50;99.90
2190;DHT22;1101;51.056;7.262;2023-02-18T04:42:00;9.50;99.90
2190;DHT22;1101;51.056;7.262;2023-02-18T04:44:28;9.50;99.90
2190;DHT22;1101;51.056;7.262;2023-02-18T04:46:57;9.50;99.90
2190;DHT22;1101;51.056;7.262;2023-02-18T04:49:25;9.50;99.90
2190;DHT22;1101;51.056;7.262;2023-02-18T04:51:52;9.50;99.90
2190;DHT22;1101;51.056;7.262;2023-02-18T04:54:20;9.50;99.90
2190;DHT22;1101;51.056;7.262;2023-02-18T04:56:48;9.50;99.90
2190;DHT22;1101;51.056;7.262;2023-02-18T04:59:16;9.50;99.90
2190;DHT22;1101;51.056;7.262;2023-02-18T05:01:43;9.50;99.90
2190;DHT22;1101;51.056;7.262;2023-02-18T05:04:13;9.50;99.90
2190;DHT22;1101;51.056;7.262;2023-02-18T05:06:40;9.50;99.90
2190;DHT22;1101;51.056;7.262;2023-02-18T05:09:08;9.50;99.90
2190;DHT22;1101;51.056;7.262;2023-02-18T05:11:36;9.50;99.90
2190;DHT22;1101;51.056;7.262;2023-02-18T05:14:04;9.40;99.90
2190;DHT22;1101;51.056;7.262;2023-02-18T05:16:32;9.40;99.90
2190;DHT22;1101;51.056;7.262;2023-02-18T05:19:00;9.40;99.90
2190;DHT22;1101;51.056;7.262;2023-02-18T05:21:29;9.40;99.90
2190;DHT22;1101;51.056;7.262;2023-02-18T05:23:57;9.40;99.90
2190;DHT22;1101;51.056;7.262;2023-02-18T05:26:25;9.40;99.90
2190;DHT22;1101;51.056;7.262;2023-02-18T05:28:52;9.40;99.90
2190;DHT22;1101;51.056;7.262;2023-02-18T05:31:20;9.40;99.90
2190;DHT22;1101;51.056;7.262;2023-02-18T05:33:48;9.40;99.90
2190;DHT22;1101;51.056;7.262;2023-02-18T05:36:16;9.40;99.90
2190;DHT22;1101;51.056;7.262;2023-02-18T05:38:45;9.40;99.90
2190;DHT22;1101;51.056;7.262;2023-02-18T05:41:13;9.40;99.90
2190;DHT22;1101;51.056;7.262;2023-02-18T05:43:40;9.40;99.90
2190;DHT22;1101;51.056;7.262;2023-02-18T05:46:26;9.40;99.90
2190;DHT22;1101;51.056;7.262;2023-02-18T05:48:53;9.40;99.90
2190;DHT22;1101;51.056;7.262;2023-02-18T05:51:21;9.40;99.90
2190;DHT22;1101;51.056;7.262;2023-02-18T05:53:50;9.40;99.90
2190;DHT22;1101;51.056;7.262;2023-02-18T05:56:18;9.30;99.90
2190;DHT22;1101;51.056;7.262;2023-02-18T05:58:46;9.30;99.90
2190;DHT22;1101;51.056;7.262;2023-02-18T06:01:14;9.30;99.90
2190;DHT22;1101;51.056;7.262;2023-02-18T06:03:42;9.30;99.90
2190;DHT22;1101;51.056;7.262;2023-02-18T06:06:09;9.40;99.90
2190;DHT22;1101;51.056;7.262;2023-02-18T06:08:37;9.30;99.90
2190;DHT22;1101;51.056;7.262;2023-02-18T06:11:06;9.30;99.90
2190;DHT22;1101;51.056;7.262;2023-02-18T06:13:34;9.30;99.90
2190;DHT22;1101;51.056;7.262;2023-02-18T06:16:02;9.30;99.90
2190;DHT22;1101;51.056;7.262;2023-02-18T06:18:30;9.30;99.90
2190;DHT22;1101;51.056;7.262;2023-02-18T06:20:58;9.30;99.90
2190;DHT22;1101;51.056;7.262;2023-02-18T06:23:25;9.30;99.90
2190;DHT22;1101;51.056;7.262;2023-02-18T06:25:53;9.30;99.90
2190;DHT22;1101;51.056;7.262;2023-02-18T06:28:22;9.30;99.90
2190;DHT22;1101;51.056;7.262;2023-02-18T06:30:50;9.30;99.90
2190;DHT22;1101;51.056;7.262;2023-02-18T06:33:18;9.30;99.90
2190;DHT22;1101;51.056;7.262;2023-02-18T06:35:53;9.30;99.90
2190;DHT22;1101;51.056;7.262;2023-02-18T06:38:21;9.30;99.90
2190;DHT22;1101;51.056;7.262;2023-02-18T06:40:49;9.30;99.90
2190;DHT22;1101;51.056;7.262;2023-02-18T06:43:17;9.30;99.90
2190;DHT22;1101;51.056;7.262;2023-02-18T06:45:46;9.30;99.90
2190;DHT22;1101;51.056;7.262;2023-02-18T06:48:13;9.20;99.90
2190;DHT22;1101;51.056;7.262;2023-02-18T06:50:42;9.20;99.90
2190;DHT22;1101;51.056;7.262;2023-02-18T06:53:10;9.30;99.90
2190;DHT22;1101;51.056;7.262;2023-02-18T06:55:38;9.20;99.90
2190;DHT22;1101;51.056;7.262;2023-02-18T06:58:08;9.20;99.90
2190;DHT22;1101;51.056;7.262;2023-02-18T07:00:37;9.20;99.90
2190;DHT22;1101;51.056;7.262;2023-02-18T07:03:07;9.20;99.90
2190;DHT22;1101;51.056;7.262;2023-02-18T07:05:34;9.20;99.90
2190;DHT22;1101;51.056;7.262;2023-02-18T07:08:02;9.20;99.90
2190;DHT22;1101;51.056;7.262;2023-02-18T07:10:30;9.20;99.90
2190;DHT22;1101;51.056;7.262;2023-02-18T07:12:58;9.20;99.90
2190;DHT22;1101;51.056;7.262;2023-02-18T07:15:26;9.20;99.90
2190;DHT22;1101;51.056;7.262;2023-02-18T07:17:54;9.20;99.90
2190;DHT22;1101;51.056;7.262;2023-02-18T07:20:23;9.20;99.90
2190;DHT22;1101;51.056;7.262;2023-02-18T07:22:52;9.20;99.90
2190;DHT22;1101;51.056;7.262;2023-02-18T07:25:20;9.20;99.90
2190;DHT22;1101;51.056;7.262;2023-02-18T07:27:49;9.20;99.90
2190;DHT22;1101;51.056;7.262;2023-02-18T07:30:17;9.20;99.90
2190;DHT22;1101;51.056;7.262;2023-02-18T07:32:45;9.20;99.90
2190;DHT22;1101;51.056;7.262;2023-02-18T07:35:14;9.20;99.90
2190;DHT22;1101;51.056;7.262;2023-02-18T07:37:45;9.20;99.90
2190;DHT22;1101;51.056;7.262;2023-02-18T07:40:15;9.20;99.90
2190;DHT22;1101;51.056;7.262;2023-02-18T07:42:43;9.20;99.90
2190;DHT22;1101;51.056;7.262;2023-02-18T07:45:12;9.20;99.90
2190;DHT22;1101;51.056;7.262;2023-02-18T07:47:40;9.20;99.90
2190;DHT22;1101;51.056;7.262;2023-02-18T07:50:09;9.20;99.90
2190;DHT22;1101;51.056;7.262;2023-02-18T07:52:36;9.20;99.90
2190;DHT22;1101;51.056;7.262;2023-02-18T07:55:07;9.20;99.90
2190;DHT22;1101;51.056;7.262;2023-02-18T07:57:35;9.20;99.90
2190;DHT22;1101;51.056;7.262;2023-02-18T08:00:23;9.20;99.90
2190;DHT22;1101;51.056;7.262;2023-02-18T08:02:51;9.20;99.90
2190;DHT22;1101;51.056;7.262;2023-02-18T08:05:19;9.30;99.90
2190;DHT22;1101;51.056;7.262;2023-02-18T08:07:46;9.30;99.90
2190;DHT22;1101;51.056;7.262;2023-02-18T08:10:15;9.30;99.90
2190;DHT22;1101;51.056;7.262;2023-02-18T08:12:43;9.30;99.90
2190;DHT22;1101;51.056;7.262;2023-02-18T08:15:11;9.30;99.90
2190;DHT22;1101;51.056;7.262;2023-02-18T08:17:39;9.30;99.90
2190;DHT22;1101;51.056;7.262;2023-02-18T08:20:08;9.30;99.90
2190;DHT22;1101;51.056;7.262;2023-02-18T08:22:36;9.30;99.90
2190;DHT22;1101;51.056;7.262;2023-02-18T08:25:04;9.30;99.90
2190;DHT22;1101;51.056;7.262;2023-02-18T08:27:33;9.30;99.90
2190;DHT22;1101;51.056;7.262;2023-02-18T08:30:01;9.30;99.90
2190;DHT22;1101;51.056;7.262;2023-02-18T08:32:29;9.30;99.90
2190;DHT22;1101;51.056;7.262;2023-02-18T08:34:57;9.20;99.90
2190;DHT22;1101;51.056;7.262;2023-02-18T08:37:25;9.20;99.90
2190;DHT22;1101;51.056;7.262;2023-02-18T08:39:52;9.20;99.90
2190;DHT22;1101;51.056;7.262;2023-02-18T08:42:20;9.20;99.90
2190;DHT22;1101;51.056;7.262;2023-02-18T08:44:49;9.10;99.90
2190;DHT22;1101;51.056;7.262;2023-02-18T08:47:17;9.10;99.90
2190;DHT22;1101;51.056;7.262;2023-02-18T08:50:05;9.10;99.90
2190;DHT22;1101;51.056;7.262;2023-02-18T08:52:33;9.00;99.90
2190;DHT22;1101;51.056;7.262;2023-02-18T08:55:01;9.00;99.90
2190;DHT22;1101;51.056;7.262;2023-02-18T08:57:30;9.00;99.90
2190;DHT22;1101;51.056;7.262;2023-02-18T08:59:59;9.00;99.90
2190;DHT22;1101;51.056;7.262;2023-02-18T09:02:27;8.90;99.90
2190;DHT22;1101;51.056;7.262;2023-02-18T09:04:55;8.90;99.90
2190;DHT22;1101;51.056;7.262;2023-02-18T09:07:22;8.90;99.90
2190;DHT22;1101;51.056;7.262;2023-02-18T09:09:50;8.90;99.90
2190;DHT22;1101;51.056;7.262;2023-02-18T09:12:18;8.80;99.90
2190;DHT22;1101;51.056;7.262;2023-02-18T09:14:46;8.80;99.90
2190;DHT22;1101;51.056;7.262;2023-02-18T09:17:15;8.80;99.90
2190;DHT22;1101;51.056;7.262;2023-02-18T09:19:43;8.80;99.90
2190;DHT22;1101;51.056;7.262;2023-02-18T09:22:11;8.80;99.90
2190;DHT22;1101;51.056;7.262;2023-02-18T09:24:40;8.80;99.90
2190;DHT22;1101;51.056;7.262;2023-02-18T09:27:08;8.80;99.90
2190;DHT22;1101;51.056;7.262;2023-02-18T09:29:38;8.90;99.90
2190;DHT22;1101;51.056;7.262;2023-02-18T09:32:07;8.90;99.90
2190;DHT22;1101;51.056;7.262;2023-02-18T09:34:38;8.90;99.90
2190;DHT22;1101;51.056;7.262;2023-02-18T09:37:05;8.80;99.90
2190;DHT22;1101;51.056;7.262;2023-02-18T09:39:33;8.80;99.90
2190;DHT22;1101;51.056;7.262;2023-02-18T09:42:02;8.80;99.90
2190;DHT22;1101;51.056;7.262;2023-02-18T09:44:34;8.80;99.90
2190;DHT22;1101;51.056;7.262;2023-02-18T09:47:08;8.80;99.90
2190;DHT22;1101;51.056;7.262;2023-02-18T09:49:41;8.80;99.90
2190;DHT22;1101;51.056;7.262;2023-02-18T09:52:20;8.80;99.90
2190;DHT22;1101;51.056;7.262;2023-02-18T09:54:49;8.80;99.90
2190;DHT22;1101;51.056;7.262;2023-02-18T09:57:23;8.80;99.90
2190;DHT22;1101;51.056;7.262;2023-02-18T09:59:57;8.80;99.90
2190;DHT22;1101;51.056;7.262;2023-02-18T10:02:27;8.80;99.90
2190;DHT22;1101;51.056;7.262;2023-02-18T10:04:57;8.80;99.90
2190;DHT22;1101;51.056;7.262;2023-02-18T10:07:27;8.80;99.90
2190;DHT22;1101;51.056;7.262;2023-02-18T10:10:00;8.80;99.90
2190;DHT22;1101;51.056;7.262;2023-02-18T10:12:31;8.90;99.90
2190;DHT22;1101;51.056;7.262;2023-02-18T10:15:00;8.90;99.90
2190;DHT22;1101;51.056;7.262;2023-02-18T10:17:31;8.90;99.90
2190;DHT22;1101;51.056;7.262;2023-02-18T10:20:02;8.80;99.90
2190;DHT22;1101;51.056;7.262;2023-02-18T10:22:34;8.80;99.90
2190;DHT22;1101;51.056;7.262;2023-02-18T10:25:05;8.80;99.90
2190;DHT22;1101;51.056;7.262;2023-02-18T10:27:36;8.80;99.90
2190;DHT22;1101;51.056;7.262;2023-02-18T10:30:20;8.80;99.90
2190;DHT22;1101;51.056;7.262;2023-02-18T10:32:50;8.80;99.90
2190;DHT22;1101;51.056;7.262;2023-02-18T10:35:23;8.80;99.90
2190;DHT22;1101;51.056;7.262;2023-02-18T10:38:00;8.80;99.90
2190;DHT22;1101;51.056;7.262;2023-02-18T10:40:34;8.80;99.90
2190;DHT22;1101;51.056;7.262;2023-02-18T10:43:12;8.90;99.90
2190;DHT22;1101;51.056;7.262;2023-02-18T10:45:47;8.80;99.90
2190;DHT22;1101;51.056;7.262;2023-02-18T10:48:34;8.80;99.90
2190;DHT22;1101;51.056;7.262;2023-02-18T10:51:14;8.90;99.90
2190;DHT22;1101;51.056;7.262;2023-02-18T10:53:43;8.80;99.90
2190;DHT22;1101;51.056;7.262;2023-02-18T10:56:32;8.80;99.90
2190;DHT22;1101;51.056;7.262;2023-02-18T10:59:05;8.80;99.90
2190;DHT22;1101;51.056;7.262;2023-02-18T11:01:36;8.90;99.90
2190;DHT22;1101;51.056;7.262;2023-02-18T11:04:10;8.80;99.90
2190;DHT22;1101;51.056;7.262;2023-02-18T11:06:42;8.80;99.90
2190;DHT22;1101;51.056;7.262;2023-02-18T11:09:26;8.80;99.90
2190;DHT22;1101;51.056;7.262;2023-02-18T11:12:01;8.80;99.90
2190;DHT22;1101;51.056;7.262;2023-02-18T11:14:40;8.80;99.90
2190;DHT22;1101;51.056;7.262;2023-02-18T11:17:16;8.80;99.90
2190;DHT22;1101;51.056;7.262;2023-02-18T11:19:52;8.80;99.90
2190;DHT22;1101;51.056;7.262;2023-02-18T11:22:23;8.80;99.90
2190;DHT22;1101;51.056;7.262;2023-02-18T11:24:56;8.80;99.90
2190;DHT22;1101;51.056;7.262;2023-02-18T11:27:29;8.80;99.90
2190;DHT22;1101;51.056;7.262;2023-02-18T11:30:02;8.80;99.90
2190;DHT22;1101;51.056;7.262;2023-02-18T11:32:34;8.80;99.90
2190;DHT22;1101;51.056;7.262;2023-02-18T11:35:03;8.80;99.90
2190;DHT22;1101;51.056;7.262;2023-02-18T11:37:34;8.90;99.90
2190;DHT22;1101;51.056;7.262;2023-02-18T11:40:05;8.90;99.90
2190;DHT22;1101;51.056;7.262;2023-02-18T11:42:33;8.90;99.90
2190;DHT22;1101;51.056;7.262;2023-02-18T11:45:01;8.90;99.90
2190;DHT22;1101;51.056;7.262;2023-02-18T11:47:33;8.90;99.90
2190;DHT22;1101;51.056;7.262;2023-02-18T11:50:16;8.90;99.90
2190;DHT22;1101;51.056;7.262;2023-02-18T11:52:50;8.90;99.90
2190;DHT22;1101;51.056;7.262;2023-02-18T11:55:20;8.90;99.90
2190;DHT22;1101;51.056;7.262;2023-02-18T11:57:53;8.90;99.90
2190;DHT22;1101;51.056;7.262;2023-02-18T12:00:24;8.90;99.90
2190;DHT22;1101;51.056;7.262;2023-02-18T12:02:58;8.90;99.90
2190;DHT22;1101;51.056;7.262;2023-02-18T12:05:26;8.90;99.90
2190;DHT22;1101;51.056;7.262;2023-02-18T12:08:00;8.90;99.90
2190;DHT22;1101;51.056;7.262;2023-02-18T12:10:31;8.90;99.90
2190;DHT22;1101;51.056;7.262;2023-02-18T12:13:03;8.90;99.90
2190;DHT22;1101;51.056;7.262;2023-02-18T12:15:45;8.90;99.90
2190;DHT22;1101;51.056;7.262;2023-02-18T12:21:32;8.90;99.90
2190;DHT22;1101;51.056;7.262;2023-02-18T12:24:12;8.90;99.90
2190;DHT22;1101;51.056;7.262;2023-02-18T12:26:50;8.90;99.90
2190;DHT22;1101;51.056;7.262;2023-02-18T12:29:35;8.90;99.90
2190;DHT22;1101;51.056;7.262;2023-02-18T12:32:14;8.90;99.90
2190;DHT22;1101;51.056;7.262;2023-02-18T12:34:59;8.90;99.90
2190;DHT22;1101;51.056;7.262;2023-02-18T12:37:57;8.90;99.90
2190;DHT22;1101;51.056;7.262;2023-02-18T12:40:48;8.90;99.90
2190;DHT22;1101;51.056;7.262;2023-02-18T12:43:28;8.90;99.90
2190;DHT22;1101;51.056;7.262;2023-02-18T12:46:20;8.90;99.90
2190;DHT22;1101;51.056;7.262;2023-02-18T12:49:04;8.90;99.90
2190;DHT22;1101;51.056;7.262;2023-02-18T12:51:41;8.90;99.90
2190;DHT22;1101;51.056;7.262;2023-02-18T12:54:25;8.90;99.90
2190;DHT22;1101;51.056;7.262;2023-02-18T13:03:01;8.90;99.90
2190;DHT22;1101;51.056;7.262;2023-02-18T13:05:39;8.90;99.90
2190;DHT22;1101;51.056;7.262;2023-02-18T13:08:19;8.90;99.90
2190;DHT22;1101;51.056;7.262;2023-02-18T13:11:00;8.90;99.90
2190;DHT22;1101;51.056;7.262;2023-02-18T13:13:34;8.90;99.90
2190;DHT22;1101;51.056;7.262;2023-02-18T13:16:07;8.90;99.90
2190;DHT22;1101;51.056;7.262;2023-02-18T13:18:38;8.90;99.90
2190;DHT22;1101;51.056;7.262;2023-02-18T13:21:08;8.90;99.90
2190;DHT22;1101;51.056;7.262;2023-02-18T13:23:41;8.90;99.90
2190;DHT22;1101;51.056;7.262;2023-02-18T13:26:12;8.90;99.90
2190;DHT22;1101;51.056;7.262;2023-02-18T13:28:47;8.90;99.90
2190;DHT22;1101;51.056;7.262;2023-02-18T13:31:24;8.90;99.90
2190;DHT22;1101;51.056;7.262;2023-02-18T13:33:57;8.90;99.90
2190;DHT22;1101;51.056;7.262;2023-02-18T13:36:35;8.90;99.90
2190;DHT22;1101;51.056;7.262;2023-02-18T13:39:07;8.90;99.90
2190;DHT22;1101;51.056;7.262;2023-02-18T13:41:36;8.90;99.90
2190;DHT22;1101;51.056;7.262;2023-02-18T13:47:36;8.90;99.90
2190;DHT22;1101;51.056;7.262;2023-02-18T13:50:41;8.90;99.90
2190;DHT22;1101;51.056;7.262;2023-02-18T13:53:18;8.90;99.90
2190;DHT22;1101;51.056;7.262;2023-02-18T13:56:00;8.90;99.90
2190;DHT22;1101;51.056;7.262;2023-02-18T13:58:34;8.90;99.90
2190;DHT22;1101;51.056;7.262;2023-02-18T14:01:10;8.90;99.90
2190;DHT22;1101;51.056;7.262;2023-02-18T14:03:58;8.90;99.90
2190;DHT22;1101;51.056;7.262;2023-02-18T14:06:30;8.90;99.90
2190;DHT22;1101;51.056;7.262;2023-02-18T14:11:54;8.90;99.90
2190;DHT22;1101;51.056;7.262;2023-02-18T14:14:37;8.90;99.90
2190;DHT22;1101;51.056;7.262;2023-02-18T14:20:27;8.90;99.90
2190;DHT22;1101;51.056;7.262;2023-02-18T14:22:56;8.90;99.90
2190;DHT22;1101;51.056;7.262;2023-02-18T14:25:35;8.90;99.90
2190;DHT22;1101;51.056;7.262;2023-02-18T14:28:38;8.90;99.90
2190;DHT22;1101;51.056;7.262;2023-02-18T14:31:29;8.90;99.90
2190;DHT22;1101;51.056;7.262;2023-02-18T14:34:34;8.90;99.90
2190;DHT22;1101;51.056;7.262;2023-02-18T14:37:26;8.90;99.90
2190;DHT22;1101;51.056;7.262;2023-02-18T14:40:07;8.90;99.90
2190;DHT22;1101;51.056;7.262;2023-02-18T14:42:42;8.90;99.90
2190;DHT22;1101;51.056;7.262;2023-02-18T14:45:20;8.90;99.90
2190;DHT22;1101;51.056;7.262;2023-02-18T14:48:06;9.00;99.90
2190;DHT22;1101;51.056;7.262;2023-02-18T14:50:42;9.00;99.90
2190;DHT22;1101;51.056;7.262;2023-02-18T14:53:13;9.00;99.90
2190;DHT22;1101;51.056;7.262;2023-02-18T14:55:46;9.00;99.90
2190;DHT22;1101;51.056;7.262;2023-02-18T14:58:25;9.00;99.90
2190;DHT22;1101;51.056;7.262;2023-02-18T15:00:55;9.00;99.90
2190;DHT22;1101;51.056;7.262;2023-02-18T15:03:26;9.00;99.90
2190;DHT22;1101;51.056;7.262;2023-02-18T15:05:54;9.00;99.90
2190;DHT22;1101;51.056;7.262;2023-02-18T15:08:23;9.00;99.90
2190;DHT22;1101;51.056;7.262;2023-02-18T15:10:52;9.00;99.90
2190;DHT22;1101;51.056;7.262;2023-02-18T15:13:25;9.00;99.90
2190;DHT22;1101;51.056;7.262;2023-02-18T15:15:58;9.00;99.90
2190;DHT22;1101;51.056;7.262;2023-02-18T15:18:31;9.00;99.90
2190;DHT22;1101;51.056;7.262;2023-02-18T15:21:00;9.00;99.90
2190;DHT22;1101;51.056;7.262;2023-02-18T15:23:29;9.00;99.90
2190;DHT22;1101;51.056;7.262;2023-02-18T15:25:57;9.00;99.90
2190;DHT22;1101;51.056;7.262;2023-02-18T15:28:27;9.00;99.90
2190;DHT22;1101;51.056;7.262;2023-02-18T15:30:58;9.00;99.90
2190;DHT22;1101;51.056;7.262;2023-02-18T15:33:27;9.00;99.90
2190;DHT22;1101;51.056;7.262;2023-02-18T15:36:00;9.00;99.90
2190;DHT22;1101;51.056;7.262;2023-02-18T15:38:28;9.00;99.90
2190;DHT22;1101;51.056;7.262;2023-02-18T15:40:56;9.00;99.90
2190;DHT22;1101;51.056;7.262;2023-02-18T15:43:25;9.00;99.90
2190;DHT22;1101;51.056;7.262;2023-02-18T15:45:54;9.00;99.90
2190;DHT22;1101;51.056;7.262;2023-02-18T15:48:28;9.00;99.90
2190;DHT22;1101;51.056;7.262;2023-02-18T15:51:03;9.00;99.90
2190;DHT22;1101;51.056;7.262;2023-02-18T15:53:44;9.00;99.90
2190;DHT22;1101;51.056;7.262;2023-02-18T15:56:19;9.00;99.90
2190;DHT22;1101;51.056;7.262;2023-02-18T15:58:47;9.00;99.90
2190;DHT22;1101;51.056;7.262;2023-02-18T16:01:25;9.00;99.90
2190;DHT22;1101;51.056;7.262;2023-02-18T16:03:55;9.00;99.90
2190;DHT22;1101;51.056;7.262;2023-02-18T16:06:25;9.00;99.90
2190;DHT22;1101;51.056;7.262;2023-02-18T16:08:59;9.00;99.90
2190;DHT22;1101;51.056;7.262;2023-02-18T16:11:31;9.00;99.90
2190;DHT22;1101;51.056;7.262;2023-02-18T16:13:59;9.00;99.90
2190;DHT22;1101;51.056;7.262;2023-02-18T16:16:29;9.00;99.90
2190;DHT22;1101;51.056;7.262;2023-02-18T16:18:59;9.00;99.90
2190;DHT22;1101;51.056;7.262;2023-02-18T16:21:31;9.00;99.90
2190;DHT22;1101;51.056;7.262;2023-02-18T16:24:01;9.00;99.90
2190;DHT22;1101;51.056;7.262;2023-02-18T16:26:31;9.00;99.90
2190;DHT22;1101;51.056;7.262;2023-02-18T16:29:11;9.10;99.90
2190;DHT22;1101;51.056;7.262;2023-02-18T16:31:40;9.00;99.90
2190;DHT22;1101;51.056;7.262;2023-02-18T16:34:09;9.00;99.90
2190;DHT22;1101;51.056;7.262;2023-02-18T16:36:37;9.00;99.90
2190;DHT22;1101;51.056;7.262;2023-02-18T16:39:26;9.00;99.90
2190;DHT22;1101;51.056;7.262;2023-02-18T16:41:54;9.00;99.90
2190;DHT22;1101;51.056;7.262;2023-02-18T16:44:21;9.10;99.90
2190;DHT22;1101;51.056;7.262;2023-02-18T16:46:49;9.10;99.90
2190;DHT22;1101;51.056;7.262;2023-02-18T16:49:19;9.10;99.90
2190;DHT22;1101;51.056;7.262;2023-02-18T16:51:47;9.10;99.90
2190;DHT22;1101;51.056;7.262;2023-02-18T16:54:15;9.10;99.90
2190;DHT22;1101;51.056;7.262;2023-02-18T16:56:43;9.10;99.90
2190;DHT22;1101;51.056;7.262;2023-02-18T16:59:11;9.10;99.90
2190;DHT22;1101;51.056;7.262;2023-02-18T17:01:42;9.10;99.90
2190;DHT22;1101;51.056;7.262;2023-02-18T17:04:12;9.10;99.90
2190;DHT22;1101;51.056;7.262;2023-02-18T17:06:42;9.10;99.90
2190;DHT22;1101;51.056;7.262;2023-02-18T17:09:12;9.10;99.90
2190;DHT22;1101;51.056;7.262;2023-02-18T17:11:43;9.10;99.90